Latest Coastal Weather Observations for Cape Moreton

IDQ60701

Issued at 3:02 pm EST Sunday 25 June 2017 (issued every 10 minutes, with the page automatically refreshed every 10 minutes)

About coastal observations | Map of coastal stations | Coastal observations for QLD | Marine services | Other Formats
Station Details ID: 040043 Name: CAPE MORETON LIGHTHOUSE Lat: -27.03 Lon: 153.47 Height: 99.9 m
Data from the previous 72 hours. | See also: Recent months at Cape Moreton
Date/Time
EST
Temp
°C
Wind Pressure Rain since
9am
mm
Weather Cloud Vis
km
Sea
Height
m
Swell
Dir  Spd
kts
Gust
kts
hPa Trend Height
m
Period
s
Dir
25/03:00pm 20.8 NE 6 8 1017.6 - 0.0 - - - - - - -
25/02:30pm 21.5 NNE 5 6 1017.9 - 0.0 - - - - - - -
25/02:00pm 22.2 NE 4 6 1017.9 - 0.0 - - - - - - -
25/01:30pm 22.0 NE 4 7 1018.1 - 0.0 - - - - - - -
25/01:00pm 22.2 NE 5 6 1018.1 - 0.0 - - - - - - -
25/12:30pm 21.7 N 5 6 1018.3 - 0.0 - - - - - - -
25/12:00pm 21.2 N 4 6 1018.7 - 0.0 - - - - - - -
25/11:30am 21.6 ENE 5 6 1019.0 - 0.0 - - - - - - -
25/11:00am 21.9 ESE 6 7 1019.4 - 0.0 - - - - - - -
25/10:30am 21.3 SSE 5 8 1020.0 - 0.0 - - - - - - -
25/10:00am 21.1 SSE 6 8 1020.0 - 0.0 - - - - - - -
25/09:30am 20.3 SSE 6 8 1020.1 - 0.0 - - - - - - -
25/09:00am 20.8 SSE 6 9 1020.1 - 0.0 - - - - - - -
25/08:30am 19.7 S 5 7 1019.6 - 0.0 - - - - - - -
25/08:00am 18.9 SSW 5 6 1019.3 - 0.0 - - - - - - -
25/07:30am 17.9 SSW 6 6 1019.1 - 0.0 - - - - - - -
25/07:00am 18.0 S 7 8 1018.9 - 0.0 - - - - - - -
25/06:30am 18.2 S 7 8 1018.8 - 0.0 - - - - - - -
25/06:00am 18.4 SSW 6 6 1018.3 - 0.0 - - - - - - -
25/05:30am 18.2 SSW 6 7 1018.2 - 0.0 - - - - - - -
25/05:00am 18.0 SSW 5 6 1017.8 - 0.0 - - - - - - -
25/04:30am 18.5 SSE 1 5 1017.8 - 0.0 - - - - - - -
25/04:00am 18.9 E 4 6 1017.8 - 0.0 - - - - - - -
25/03:30am 19.0 ENE 5 6 1017.7 - 0.0 - - - - - - -
25/03:00am 19.0 ENE 6 8 1017.8 - 0.0 - - - - - - -
25/02:30am 18.8 E 5 6 1017.9 - 0.0 - - - - - - -
25/02:00am 19.2 ENE 4 6 1018.1 - 0.0 - - - - - - -
25/01:30am 18.8 E 6 7 1018.1 - 0.0 - - - - - - -
25/01:00am 19.0 E 5 7 1018.2 - 0.0 - - - - - - -
25/12:30am 18.8 E 7 9 1018.4 - 0.0 - - - - - - -
25/12:00am 18.8 ESE 7 9 1018.5 - 0.0 - - - - - - -
 
Date/Time
EST
Temp
°C
Wind Pressure Rain since
9am
mm
Weather Cloud Vis
km
Sea
Height
m
Swell
Dir  Spd
kts
Gust
kts
hPa Trend Height
m
Period
s
Dir
24/11:30pm 18.8 ESE 7 10 1018.3 - 0.0 - - - - - - -
24/11:00pm 19.2 ESE 10 13 1018.5 - 0.0 - - - - - - -
24/10:30pm 19.3 E 11 13 1018.5 - 0.0 - - - - - - -
24/10:00pm 19.2 E 12 14 1018.4 - 0.0 - - - - - - -
24/09:30pm 19.3 E 13 15 1018.2 - 0.0 - - - - - - -
24/09:00pm 19.5 ESE 14 18 1017.9 - 0.0 - - - - - - -
24/08:30pm 19.7 ESE 13 15 1018.0 - 0.0 - - - - - - -
24/08:00pm 19.7 ESE 12 14 1018.0 - 0.0 - - - - - - -
24/07:30pm 19.9 E 12 14 1017.8 - 0.0 - - - - - - -
24/07:00pm 19.8 ESE 10 12 1017.6 - 0.0 - - - - - - -
24/06:30pm 19.9 ESE 11 13 1017.2 - 0.0 - - - - - - -
24/06:00pm 19.7 SE 7 9 1016.9 - 0.0 - - - - - - -
24/05:30pm 19.9 SE 7 8 1016.7 - 0.0 - - - - - - -
24/05:00pm 20.7 S 6 7 1016.4 - 0.0 - - - - - - -
24/04:30pm 21.2 SW 5 7 1016.2 - 0.0 - - - - - - -
24/04:00pm 21.7 SW 7 10 1015.9 - 0.0 - - - - - - -
24/03:30pm 22.0 SW 6 9 1015.8 - 0.0 - - - - - - -
24/03:00pm 22.4 SW 7 11 1015.8 - 0.0 - - - - - - -
24/02:30pm 22.5 SW 7 11 1015.9 - 0.0 - - - - - - -
24/02:00pm 22.3 WSW 8 11 1015.6 - 0.0 - - - - - - -
24/01:30pm 22.1 SW 10 14 1015.6 - 0.0 - - - - - - -
24/01:00pm 22.0 WSW 8 11 1015.8 - 0.0 - - - - - - -
24/12:30pm 22.0 SW 6 9 1016.1 - 0.0 - - - - - - -
24/12:00pm 21.2 WSW 7 13 1016.7 - 0.0 - - - - - - -
24/11:30am 21.0 W 8 11 1017.1 - 0.0 - - - - - - -
24/11:00am 21.1 WSW 10 13 1017.8 - 0.0 - - - - - - -
24/10:30am 20.9 WSW 8 14 1018.2 - 0.0 - - - - - - -
24/10:00am 19.3 W 9 12 1018.4 - 0.0 - - - - - - -
24/09:30am 18.6 W 14 19 1018.2 - 0.0 - - - - - - -
24/09:00am 17.8 W 10 14 1018.3 - 0.0 - - - - - - -
24/08:30am 16.9 W 12 14 1018.2 - 0.0 - - - - - - -
24/08:00am 16.2 W 11 13 1017.9 - 0.0 - - - - - - -
24/07:30am 16.3 W 10 11 1017.6 - 0.0 - - - - - - -
24/07:00am 16.5 W 11 13 1017.5 - 0.0 - - - - - - -
24/06:30am 16.4 W 11 13 1017.2 - 0.0 - - - - - - -
24/06:00am 16.7 W 11 13 1016.9 - 0.0 - - - - - - -
24/05:30am 17.4 WNW 10 13 1016.6 - 0.0 - - - - - - -
24/05:00am 17.7 WNW 11 14 1016.4 - 0.0 - - - - - - -
24/04:30am 18.1 WNW 12 17 1016.3 - 0.0 - - - - - - -
24/04:00am 18.4 WNW 12 17 1016.3 - 0.0 - - - - - - -
24/03:30am 18.5 WNW 12 17 1016.5 - 0.0 - - - - - - -
24/03:00am 18.5 NW 11 16 1016.7 - 0.0 - - - - - - -
24/02:30am 18.8 NW 11 14 1017.2 - 0.0 - - - - - - -
24/02:00am 19.0 NW 10 15 1017.3 - 0.0 - - - - - - -
24/01:30am 19.2 NW 10 15 1017.5 - 0.0 - - - - - - -
24/01:00am 19.3 NW 10 13 1017.6 - 0.0 - - - - - - -
24/12:30am 19.3 NNW 11 14 1017.6 - 0.0 - - - - - - -
24/12:00am 19.3 NW 9 12 1018.1 - 0.0 - - - - - - -
 
Date/Time
EST
Temp
°C
Wind Pressure Rain since
9am
mm
Weather Cloud Vis
km
Sea
Height
m
Swell
Dir  Spd
kts
Gust
kts
hPa Trend Height
m
Period
s
Dir
23/11:30pm 19.3 NW 9 12 1018.4 - 0.0 - - - - - - -
23/11:00pm 19.5 NW 10 14 1018.6 - 0.0 - - - - - - -
23/10:30pm 19.5 NW 8 12 1018.8 - 0.0 - - - - - - -
23/10:00pm 19.5 NNW 9 12 1018.9 - 0.0 - - - - - - -
23/09:30pm 19.7 NNW 10 13 1019.2 - 0.0 - - - - - - -
23/09:00pm 19.5 N 9 13 1019.2 - 0.0 - - - - - - -
23/08:30pm 19.3 N 8 10 1019.5 - 0.0 - - - - - - -
23/08:00pm 19.2 N 8 10 1019.2 - 0.0 - - - - - - -
23/07:30pm 19.1 N 8 10 1018.9 - 0.0 - - - - - - -
23/07:00pm 19.0 NNE 7 8 1019.0 - 0.0 - - - - - - -
23/06:30pm 18.9 NE 6 8 1018.9 - 0.0 - - - - - - -
23/06:00pm 18.8 NNE 4 6 1018.9 - 0.0 - - - - - - -
23/05:30pm 18.8 NE 5 7 1018.6 - 0.0 - - - - - - -
23/05:00pm 18.8 NE 5 6 1018.5 - 0.0 - - - - - - -
23/04:30pm 19.2 NE 5 6 1018.5 - 0.0 - - - - - - -
23/04:00pm 19.6 E 3 4 1018.5 - 0.0 - - - - - - -
23/03:30pm 19.8 SE 4 5 1018.6 - 0.0 - - - - - - -
23/03:00pm 20.0 SE 4 6 1018.7 - 0.0 - - - - - - -
23/02:30pm 20.3 SE 5 7 1018.9 - 0.0 - - - - - - -
23/02:00pm 20.5 SE 7 10 1019.0 - 0.0 - - - - - - -
23/01:30pm 20.3 SE 10 13 1019.4 - 0.0 - - - - - - -
23/01:00pm 19.8 SE 10 12 1019.7 - 0.0 - - - - - - -
23/12:30pm 20.7 SSE 7 10 1020.2 - 0.0 - - - - - - -
23/12:00pm 20.1 S 7 9 1020.7 - 0.0 - - - - - - -
23/11:30am 20.3 S 8 11 1021.5 - 0.0 - - - - - - -
23/11:00am 19.2 S 7 10 1022.1 - 0.0 - - - - - - -
23/10:30am 18.6 SW 7 11 1022.6 - 0.0 - - - - - - -
23/10:00am 18.6 SW 7 11 1022.7 - 0.0 - - - - - - -
23/09:30am 17.9 SW 7 10 1022.6 - 0.0 - - - - - - -
23/09:00am 16.6 SW 10 14 1022.4 - 0.0 - - - - - - -
23/08:30am 16.6 SW 10 15 1022.4 - 0.0 - - - - - - -
23/08:00am 16.4 SW 11 14 1022.1 - 0.0 - - - - - - -
23/07:30am 15.3 SW 12 15 1022.0 - 0.0 - - - - - - -
23/07:00am 14.9 SW 13 17 1021.6 - 0.0 - - - - - - -
23/06:30am 14.7 SW 12 14 1021.4 - 0.0 - - - - - - -
23/06:00am 14.6 SW 12 14 1021.2 - 0.0 - - - - - - -
23/05:30am 14.5 SW 12 14 1021.0 - 0.0 - - - - - - -
23/05:00am 15.0 SW 12 13 1020.9 - 0.0 - - - - - - -
23/04:30am 15.2 SW 12 14 1021.0 - 0.0 - - - - - - -
23/04:00am 15.2 SSW 11 13 1021.1 - 0.0 - - - - - - -
23/03:30am 15.3 SW 11 14 1021.2 - 0.0 - - - - - - -
23/03:00am 15.7 SSW 11 15 1021.5 - 0.0 - - - - - - -
23/02:30am 16.0 SSW 11 13 1021.6 - 0.0 - - - - - - -
23/02:00am 16.1 SSW 11 14 1021.8 - 0.0 - - - - - - -
23/01:30am 16.7 S 12 14 1021.9 - 0.0 - - - - - - -
23/01:00am 16.6 SSW 11 13 1022.2 - 0.0 - - - - - - -
23/12:30am 16.6 SSW 11 13 1022.5 - 0.0 - - - - - - -
23/12:00am 16.9 S 10 14 1022.7 - 0.0 - - - - - - -
 
Date/Time
EST
Temp
°C
Wind Pressure Rain since
9am
mm
Weather Cloud Vis
km
Sea
Height
m
Swell
Dir  Spd
kts
Gust
kts
hPa Trend Height
m
Period
s
Dir
22/11:30pm 17.8 S 11 14 1023.0 - 0.0 - - - - - - -
22/11:00pm 18.2 SSE 10 14 1023.2 - 0.0 - - - - - - -
22/10:30pm 19.0 SSE 12 16 1023.3 - 0.0 - - - - - - -
22/10:00pm 18.8 SSE 11 14 1023.4 - 0.0 - - - - - - -
22/09:30pm 18.8 SE 11 16 1023.5 - 0.0 - - - - - - -
22/09:00pm 18.9 SE 14 17 1023.4 - 0.0 - - - - - - -
22/08:30pm 18.9 SE 14 17 1023.4 - 0.0 - - - - - - -
22/08:00pm 18.9 SE 15 20 1023.6 - 0.0 - - - - - - -
22/07:30pm 18.9 SE 18 22 1023.4 - 0.0 - - - - - - -
22/07:00pm 19.0 SE 20 25 1023.2 - 0.0 - - - - - - -
22/06:30pm 19.1 SE 21 25 1022.9 - 0.0 - - - - - - -
22/06:00pm 19.2 SE 21 25 1022.7 - 0.0 - - - - - - -
22/05:30pm 19.2 SE 21 26 1022.4 - 0.0 - - - - - - -
22/05:00pm 19.2 SE 20 27 1022.3 - 0.0 - - - - - - -
22/04:30pm 19.3 SSE 21 26 1022.2 - 0.0 - - - - - - -
22/04:00pm 19.4 SSE 21 26 1022.2 - 0.0 - - - - - - -
22/03:30pm 19.4 SSE 21 26 1022.0 - 0.0 - - - - - - -

Other Formats:

Comma delimited format used in spreadsheet applications
http://www.bom.gov.au/fwo/IDQ60701/IDQ60701.94594.axf

JavaScript Object Notation format (JSON) in row-major order
http://www.bom.gov.au/fwo/IDQ60701/IDQ60701.94594.json